createdAt,value
2019-05-14T00:00:41.745Z,0.00
2019-05-14T00:01:42.379Z,0.00
2019-05-14T00:02:42.001Z,0.00
2019-05-14T00:03:42.225Z,0.00
2019-05-14T00:04:42.606Z,0.00
2019-05-14T00:05:42.670Z,0.00
2019-05-14T00:06:42.891Z,0.00
2019-05-14T00:07:43.117Z,0.00
2019-05-14T00:08:43.342Z,0.00
2019-05-14T00:09:43.567Z,0.00
2019-05-14T00:10:43.789Z,0.00
2019-05-14T00:11:44.014Z,0.00
2019-05-14T00:12:44.237Z,0.00
2019-05-14T00:13:44.457Z,0.00
2019-05-14T00:14:44.682Z,0.00
2019-05-14T00:15:44.902Z,0.00
2019-05-14T00:16:45.125Z,0.00
2019-05-14T00:17:45.349Z,0.00
2019-05-14T00:18:45.570Z,0.00
2019-05-14T00:19:45.791Z,0.00
2019-05-14T00:20:46.016Z,0.00
2019-05-14T00:21:46.237Z,0.00
2019-05-14T00:22:46.460Z,0.00
2019-05-14T00:23:46.697Z,0.00
2019-05-14T00:24:46.907Z,0.00
2019-05-14T00:25:47.132Z,0.00
2019-05-14T00:26:47.344Z,0.00
2019-05-14T00:27:47.571Z,0.00
2019-05-14T00:28:47.794Z,0.00
2019-05-14T00:29:48.015Z,0.00
2019-05-14T00:30:48.235Z,0.00
2019-05-14T00:31:48.467Z,0.00
2019-05-14T00:32:48.680Z,0.00
2019-05-14T00:33:51.100Z,0.00
2019-05-14T00:34:51.362Z,0.00
2019-05-14T00:35:51.305Z,0.00
2019-05-14T00:36:52.252Z,0.00
2019-05-14T00:37:51.926Z,0.00
2019-05-14T00:38:51.284Z,0.00
2019-05-14T00:39:52.041Z,0.00
2019-05-14T00:40:51.389Z,0.00
2019-05-14T00:41:51.204Z,0.00
2019-05-14T00:42:52.998Z,0.00
2019-05-14T00:43:51.478Z,0.00
2019-05-14T00:44:57.393Z,0.00
2019-05-14T00:45:51.565Z,0.00
2019-05-14T00:46:51.844Z,0.00
2019-05-14T00:47:52.610Z,0.00
2019-05-14T00:48:52.228Z,0.00
2019-05-14T00:49:52.448Z,0.00
2019-05-14T00:50:52.671Z,0.00
2019-05-14T00:51:52.895Z,0.00
2019-05-14T00:52:53.114Z,0.00
2019-05-14T00:53:53.340Z,0.00
2019-05-14T00:54:53.558Z,0.00
2019-05-14T00:55:53.782Z,0.00
2019-05-14T00:56:54.002Z,0.00
2019-05-14T00:57:54.224Z,0.00
2019-05-14T00:58:54.445Z,0.00
2019-05-14T00:59:54.669Z,0.00
2019-05-14T01:00:54.891Z,0.00
2019-05-14T01:01:55.113Z,0.00
2019-05-14T01:02:55.338Z,0.00
2019-05-14T01:03:55.558Z,0.00
2019-05-14T01:04:55.783Z,0.00
2019-05-14T01:05:56.010Z,0.00
2019-05-14T01:06:56.234Z,0.00
2019-05-14T01:07:56.455Z,0.00
2019-05-14T01:08:56.676Z,0.00
2019-05-14T01:09:56.899Z,0.00
2019-05-14T01:10:57.128Z,0.00
2019-05-14T01:11:57.343Z,0.00
2019-05-14T01:12:57.563Z,0.00
2019-05-14T01:13:57.791Z,0.00
2019-05-14T01:15:07.781Z,0.00
2019-05-14T01:15:58.225Z,0.00
2019-05-14T01:16:58.453Z,0.00
2019-05-14T01:17:58.667Z,0.00
2019-05-14T01:18:58.887Z,0.00
2019-05-14T01:19:59.112Z,0.00
2019-05-14T01:21:01.105Z,0.00
2019-05-14T01:22:01.547Z,0.00
2019-05-14T01:23:02.014Z,0.00
2019-05-14T01:24:02.026Z,0.00
2019-05-14T01:25:01.557Z,0.00
2019-05-14T01:26:02.261Z,0.00
2019-05-14T01:27:01.603Z,0.00
2019-05-14T01:28:02.078Z,0.00
2019-05-14T01:29:01.546Z,0.00
2019-05-14T01:30:02.140Z,0.00
2019-05-14T01:31:01.555Z,0.00
2019-05-14T01:32:01.777Z,0.00
2019-05-14T01:33:02.061Z,0.00
2019-05-14T01:34:02.384Z,0.00
2019-05-14T01:35:02.440Z,0.00
2019-05-14T01:36:02.670Z,0.00
2019-05-14T01:37:02.889Z,0.00
2019-05-14T01:38:03.111Z,0.00
2019-05-14T01:39:03.333Z,0.00
2019-05-14T01:40:03.569Z,0.00
2019-05-14T01:41:03.781Z,0.00
2019-05-14T01:42:04.002Z,0.00
2019-05-14T01:43:04.226Z,0.00
2019-05-14T01:44:04.449Z,0.00
2019-05-14T01:45:04.677Z,0.00
2019-05-14T01:46:04.897Z,0.00
2019-05-14T01:47:05.115Z,0.00
2019-05-14T01:48:05.337Z,0.00
2019-05-14T01:49:05.561Z,0.00
2019-05-14T01:50:05.780Z,0.00
2019-05-14T01:51:06.004Z,0.00
2019-05-14T01:52:06.225Z,0.00
2019-05-14T01:53:06.445Z,0.00
2019-05-14T01:54:06.668Z,0.00
2019-05-14T01:55:06.888Z,0.00
2019-05-14T01:56:07.109Z,0.00
2019-05-14T01:57:07.332Z,0.00
2019-05-14T01:58:07.559Z,0.00
2019-05-14T01:59:07.778Z,0.00
2019-05-14T02:00:07.999Z,0.00
2019-05-14T02:01:08.222Z,0.00
2019-05-14T02:02:08.446Z,0.00
2019-05-14T02:03:08.663Z,0.00
2019-05-14T02:04:08.884Z,0.00
2019-05-14T02:05:09.108Z,0.00
2019-05-14T02:06:11.704Z,0.00
2019-05-14T02:07:11.555Z,0.00
2019-05-14T02:08:11.982Z,0.00
2019-05-14T02:09:11.095Z,0.00
2019-05-14T02:10:11.628Z,0.00
2019-05-14T02:11:12.103Z,0.00
2019-05-14T02:12:11.689Z,0.00
2019-05-14T02:13:12.261Z,0.00
2019-05-14T02:14:11.589Z,0.00
2019-05-14T02:15:12.070Z,0.00
2019-05-14T02:16:13.053Z,0.00
2019-05-14T02:17:12.348Z,0.00
2019-05-14T02:18:11.983Z,0.00
2019-05-14T02:19:12.207Z,0.00
2019-05-14T02:20:12.783Z,0.00
2019-05-14T02:21:12.652Z,0.00
2019-05-14T02:22:12.879Z,0.00
2019-05-14T02:23:13.099Z,0.00
2019-05-14T02:24:13.320Z,0.00
2019-05-14T02:25:13.545Z,0.00
2019-05-14T02:26:13.767Z,0.00
2019-05-14T02:27:13.982Z,0.00
2019-05-14T02:28:14.204Z,0.00
2019-05-14T02:29:14.426Z,0.00
2019-05-14T02:30:14.650Z,0.00
2019-05-14T02:31:14.872Z,0.00
2019-05-14T02:32:15.092Z,0.00
2019-05-14T02:33:15.317Z,0.00
2019-05-14T02:34:15.543Z,0.00
2019-05-14T02:35:15.762Z,0.00
2019-05-14T02:36:19.215Z,0.00
2019-05-14T02:37:19.262Z,0.00
2019-05-14T02:38:19.430Z,0.00
2019-05-14T02:39:19.421Z,0.00
2019-05-14T02:40:19.906Z,0.00
2019-05-14T02:41:19.657Z,0.00
2019-05-14T02:42:19.740Z,0.00
2019-05-14T02:43:20.048Z,4.00
2019-05-14T02:44:18.794Z,4.00
2019-05-14T02:45:19.817Z,4.00
2019-05-14T02:46:21.755Z,0.00
2019-05-14T02:47:19.444Z,0.00
2019-05-14T02:48:20.134Z,4.00
2019-05-14T02:49:19.472Z,4.00
2019-05-14T02:50:20.309Z,0.00
2019-05-14T02:51:20.125Z,4.00
2019-05-14T02:52:20.280Z,4.00
2019-05-14T02:53:20.201Z,4.00
2019-05-14T02:54:20.500Z,8.00
2019-05-14T02:55:20.212Z,4.00
2019-05-14T02:56:20.716Z,4.00
2019-05-14T02:57:20.660Z,4.00
2019-05-14T02:58:21.193Z,8.00
2019-05-14T02:59:21.101Z,8.00
2019-05-14T03:00:21.344Z,12.00
2019-05-14T03:01:21.558Z,12.00
2019-05-14T03:02:21.778Z,16.00
2019-05-14T03:03:21.992Z,12.00
2019-05-14T03:04:22.226Z,16.00
2019-05-14T03:05:22.432Z,24.00
2019-05-14T03:06:22.656Z,24.00
2019-05-14T03:07:22.879Z,28.00
2019-05-14T03:08:23.115Z,32.00
2019-05-14T03:09:23.322Z,36.00
2019-05-14T03:10:23.544Z,40.00
2019-05-14T03:11:23.767Z,44.00
2019-05-14T03:12:23.985Z,52.00
2019-05-14T03:13:24.204Z,60.00
2019-05-14T03:14:24.433Z,68.00
2019-05-14T03:15:24.645Z,76.00
2019-05-14T03:16:31.060Z,88.00
2019-05-14T03:17:25.090Z,100.00
2019-05-14T03:18:25.313Z,112.00
2019-05-14T03:19:25.535Z,124.00
2019-05-14T03:20:28.646Z,140.00
2019-05-14T03:21:25.978Z,152.00
2019-05-14T03:22:39.455Z,172.00
2019-05-14T03:23:29.827Z,192.00
2019-05-14T03:24:28.767Z,212.00
2019-05-14T03:25:29.713Z,228.00
2019-05-14T03:26:29.443Z,256.00
2019-05-14T03:27:30.413Z,276.00
2019-05-14T03:28:30.415Z,300.00
2019-05-14T03:29:30.657Z,332.00
2019-05-14T03:30:32.251Z,360.00
2019-05-14T03:31:33.301Z,388.00
2019-05-14T03:32:32.969Z,424.00
2019-05-14T03:33:33.060Z,456.00
2019-05-14T03:34:33.156Z,492.00
2019-05-14T03:35:40.728Z,532.00
2019-05-14T03:36:34.353Z,568.00
2019-05-14T03:37:30.999Z,612.00
2019-05-14T03:38:29.847Z,656.00
2019-05-14T03:39:29.988Z,704.00
2019-05-14T03:40:30.214Z,752.00
2019-05-14T03:41:30.779Z,808.00
2019-05-14T03:42:30.652Z,860.00
2019-05-14T03:43:30.876Z,920.00
2019-05-14T03:44:31.097Z,980.00
2019-05-14T03:45:31.318Z,1044.00
2019-05-14T03:46:43.981Z,1108.00
2019-05-14T03:47:31.766Z,1180.00
2019-05-14T03:48:31.989Z,1264.00
2019-05-14T03:49:32.216Z,1332.00
2019-05-14T03:50:32.436Z,1416.00
2019-05-14T03:51:32.654Z,1524.00
2019-05-14T03:52:32.886Z,1604.00
2019-05-14T03:53:49.715Z,1672.00
2019-05-14T03:54:33.315Z,1768.00
2019-05-14T03:55:33.556Z,1864.00
2019-05-14T03:56:33.793Z,1964.00
2019-05-14T03:57:34.012Z,2072.00
2019-05-14T03:58:34.231Z,2180.00
2019-05-14T03:59:34.484Z,2288.00
2019-05-14T04:00:34.677Z,2400.00
2019-05-14T04:01:34.910Z,2524.00
2019-05-14T04:02:35.116Z,2736.00
2019-05-14T04:03:35.343Z,2988.00
2019-05-14T04:04:38.966Z,3388.00
2019-05-14T04:05:35.786Z,4400.00
2019-05-14T04:06:36.013Z,6436.00
2019-05-14T04:07:39.126Z,7312.00
2019-05-14T04:08:39.221Z,7400.00
2019-05-14T04:09:39.768Z,8192.00
2019-05-14T04:10:39.675Z,9804.00
2019-05-14T04:11:39.845Z,11200.00
2019-05-14T04:12:40.430Z,11584.00
2019-05-14T04:13:40.510Z,12064.00
2019-05-14T04:14:39.844Z,12768.00
2019-05-14T04:15:39.189Z,13472.00
2019-05-14T04:16:39.869Z,14144.00
2019-05-14T04:17:42.177Z,14688.00
2019-05-14T04:18:40.282Z,14976.00
2019-05-14T04:19:39.656Z,15296.00
2019-05-14T04:20:39.349Z,15680.00
2019-05-14T04:21:40.153Z,16096.00
2019-05-14T04:22:39.577Z,16864.00
2019-05-14T04:23:40.102Z,17792.00
2019-05-14T04:24:41.327Z,18560.00
2019-05-14T04:25:40.249Z,19264.00
2019-05-14T04:26:56.476Z,19680.00
2019-05-14T04:27:40.692Z,19936.00
2019-05-14T04:28:40.918Z,20640.00
2019-05-14T04:29:41.163Z,21504.00
2019-05-14T04:30:41.409Z,22560.00
2019-05-14T04:31:41.635Z,23360.00
2019-05-14T04:32:41.922Z,23936.00
2019-05-14T04:33:42.088Z,24320.00
2019-05-14T04:34:42.315Z,24288.00
2019-05-14T04:35:42.543Z,24128.00
2019-05-14T04:36:42.770Z,24384.00
2019-05-14T04:37:42.998Z,25216.00
2019-05-14T04:38:43.237Z,26336.00
2019-05-14T04:39:43.448Z,27552.00
2019-05-14T04:40:43.676Z,27936.00
2019-05-14T04:41:43.914Z,28224.00
2019-05-14T04:42:44.133Z,28448.00
2019-05-14T04:43:44.360Z,28256.00
2019-05-14T04:44:44.587Z,28192.00
2019-05-14T04:45:44.816Z,28064.00
2019-05-14T04:46:45.040Z,28896.00
2019-05-14T04:47:45.273Z,30240.00
2019-05-14T04:48:45.505Z,31616.00
2019-05-14T04:49:45.733Z,31936.00
2019-05-14T04:50:49.453Z,31808.00
2019-05-14T04:51:46.186Z,31200.00
2019-05-14T04:52:49.106Z,30880.00
2019-05-14T04:53:49.826Z,30880.00
2019-05-14T04:54:49.641Z,31296.00
2019-05-14T04:55:49.427Z,31840.00
2019-05-14T04:56:50.692Z,32608.00
2019-05-14T04:57:50.040Z,32608.00
2019-05-14T04:58:49.667Z,32928.00
2019-05-14T04:59:49.367Z,33024.00
2019-05-14T05:00:49.936Z,33152.00
2019-05-14T05:01:49.564Z,33632.00
2019-05-14T05:02:49.802Z,33760.00
2019-05-14T05:03:50.308Z,34272.00
2019-05-14T05:04:50.641Z,34816.00
2019-05-14T05:05:50.100Z,34848.00
2019-05-14T05:06:50.104Z,34944.00
2019-05-14T05:07:49.857Z,35232.00
2019-05-14T05:08:50.403Z,34976.00
2019-05-14T05:09:50.591Z,34784.00
2019-05-14T05:10:50.550Z,34784.00
2019-05-14T05:11:50.789Z,34656.00
2019-05-14T05:12:51.004Z,34656.00
2019-05-14T05:13:51.250Z,34816.00
2019-05-14T05:14:51.471Z,34752.00
2019-05-14T05:15:51.705Z,34464.00
2019-05-14T05:16:51.963Z,34624.00
2019-05-14T05:17:53.181Z,34784.00
2019-05-14T05:18:52.420Z,35200.00
2019-05-14T05:19:52.660Z,35616.00
2019-05-14T05:20:52.883Z,36096.00
2019-05-14T05:21:53.120Z,36320.00
2019-05-14T05:22:53.354Z,36064.00
2019-05-14T05:23:53.584Z,35712.00
2019-05-14T05:24:53.815Z,34784.00
2019-05-14T05:25:54.049Z,34112.00
2019-05-14T05:26:54.290Z,33344.00
2019-05-14T05:27:56.438Z,32576.00
2019-05-14T05:29:05.678Z,32352.00
2019-05-14T05:29:54.978Z,32416.00
2019-05-14T05:30:55.209Z,31936.00
2019-05-14T05:31:55.440Z,31392.00
2019-05-14T05:32:55.669Z,31008.00
2019-05-14T05:33:58.059Z,31296.00
2019-05-14T05:34:58.391Z,31616.00
2019-05-14T05:35:56.356Z,32384.00
2019-05-14T05:36:59.008Z,32384.00
2019-05-14T05:37:58.331Z,31200.00
2019-05-14T05:38:59.332Z,29632.00
2019-05-14T05:39:58.382Z,28512.00
2019-05-14T05:40:59.949Z,28960.00
2019-05-14T05:41:58.483Z,30752.00
2019-05-14T05:42:58.324Z,32064.00
2019-05-14T05:43:58.864Z,32832.00
2019-05-14T05:44:58.865Z,33152.00
2019-05-14T05:45:59.374Z,32896.00
2019-05-14T05:46:59.721Z,32608.00
2019-05-14T05:48:01.660Z,31488.00
2019-05-14T05:48:59.396Z,30272.00
2019-05-14T05:49:59.617Z,29952.00
2019-05-14T05:50:59.856Z,29440.00
2019-05-14T05:52:00.083Z,28896.00
2019-05-14T05:53:00.315Z,28672.00
2019-05-14T05:54:00.548Z,28288.00
2019-05-14T05:55:00.782Z,28576.00
2019-05-14T05:56:01.016Z,29248.00
2019-05-14T05:57:01.251Z,29984.00
2019-05-14T05:58:01.564Z,29984.00
2019-05-14T05:59:01.725Z,28832.00
2019-05-14T06:00:01.957Z,27360.00
2019-05-14T06:01:02.189Z,26400.00
2019-05-14T06:02:02.428Z,26496.00
2019-05-14T06:03:02.662Z,26688.00
2019-05-14T06:04:02.896Z,26848.00
2019-05-14T06:05:03.143Z,26816.00
2019-05-14T06:06:03.373Z,26592.00
2019-05-14T06:07:03.592Z,25280.00
2019-05-14T06:08:03.828Z,23968.00
2019-05-14T06:09:04.059Z,23200.00
2019-05-14T06:10:04.293Z,23296.00
2019-05-14T06:11:04.527Z,23104.00
2019-05-14T06:12:04.761Z,22080.00
2019-05-14T06:13:04.998Z,20736.00
2019-05-14T06:14:05.239Z,20352.00
2019-05-14T06:15:05.468Z,21792.00
2019-05-14T06:16:05.701Z,21856.00
2019-05-14T06:17:08.310Z,20416.00
2019-05-14T06:18:15.109Z,20416.00
2019-05-14T06:19:08.282Z,21152.00
2019-05-14T06:20:08.556Z,21408.00
2019-05-14T06:21:08.951Z,22240.00
2019-05-14T06:22:09.546Z,23232.00
2019-05-14T06:23:08.431Z,22880.00
2019-05-14T06:24:09.090Z,20736.00
2019-05-14T06:25:11.277Z,20032.00
2019-05-14T06:26:11.452Z,21024.00
2019-05-14T06:27:09.500Z,20896.00
2019-05-14T06:28:08.761Z,19424.00
2019-05-14T06:29:08.749Z,19552.00
2019-05-14T06:30:09.253Z,20288.00
2019-05-14T06:31:10.117Z,19648.00
2019-05-14T06:32:09.494Z,19072.00
2019-05-14T06:33:09.662Z,19072.00
2019-05-14T06:34:09.896Z,18496.00
2019-05-14T06:35:10.132Z,18016.00
2019-05-14T06:36:13.978Z,17792.00
2019-05-14T06:37:10.599Z,17696.00
2019-05-14T06:38:10.831Z,17920.00
2019-05-14T06:39:11.065Z,17440.00
2019-05-14T06:40:11.297Z,16768.00
2019-05-14T06:41:11.529Z,16800.00
2019-05-14T06:42:11.762Z,16512.00
2019-05-14T06:43:12.007Z,15968.00
2019-05-14T06:44:12.223Z,15584.00
2019-05-14T06:45:12.451Z,15424.00
2019-05-14T06:46:12.695Z,15072.00
2019-05-14T06:47:12.911Z,14880.00
2019-05-14T06:48:27.100Z,14944.00
2019-05-14T06:49:13.371Z,14720.00
2019-05-14T06:50:13.602Z,13808.00
2019-05-14T06:51:13.833Z,14036.00
2019-05-14T06:52:14.058Z,13516.00
2019-05-14T06:53:14.294Z,13408.00
2019-05-14T06:54:14.524Z,12252.00
2019-05-14T06:55:14.757Z,10384.00
2019-05-14T06:56:17.972Z,9992.00
2019-05-14T06:57:15.212Z,9992.00
2019-05-14T06:58:15.450Z,9960.00
2019-05-14T06:59:18.018Z,9796.00
2019-05-14T07:00:15.900Z,9944.00
2019-05-14T07:01:18.338Z,10164.00
2019-05-14T07:02:16.363Z,9940.00
2019-05-14T07:03:18.053Z,9952.00
2019-05-14T07:04:18.160Z,9744.00
2019-05-14T07:05:18.816Z,9956.00
2019-05-14T07:06:18.579Z,9920.00
2019-05-14T07:07:20.361Z,9960.00
2019-05-14T07:08:18.819Z,9976.00
2019-05-14T07:09:18.521Z,10004.00
2019-05-14T07:10:19.629Z,10004.00
2019-05-14T07:11:19.101Z,9984.00
2019-05-14T07:12:19.287Z,9996.00
2019-05-14T07:13:19.069Z,9980.00
2019-05-14T07:14:19.113Z,9964.00
2019-05-14T07:15:19.331Z,9936.00
2019-05-14T07:16:20.035Z,9896.00
2019-05-14T07:17:19.808Z,9840.00
2019-05-14T07:18:20.036Z,9784.00
2019-05-14T07:19:20.264Z,9784.00
2019-05-14T07:20:20.492Z,9756.00
2019-05-14T07:21:20.718Z,9932.00
2019-05-14T07:22:20.943Z,10116.00
2019-05-14T07:23:21.226Z,10064.00
2019-05-14T07:24:21.444Z,10016.00
2019-05-14T07:25:21.673Z,10068.00
2019-05-14T07:26:21.898Z,10076.00
2019-05-14T07:27:22.122Z,10116.00
2019-05-14T07:28:22.352Z,9648.00
2019-05-14T07:29:22.580Z,10020.00
2019-05-14T07:30:22.807Z,10092.00
2019-05-14T07:31:23.029Z,10096.00
2019-05-14T07:32:23.369Z,10064.00
2019-05-14T07:33:25.373Z,10044.00
2019-05-14T07:34:23.706Z,9944.00
2019-05-14T07:35:23.936Z,9988.00
2019-05-14T07:36:24.161Z,9804.00
2019-05-14T07:37:24.390Z,9860.00
2019-05-14T07:38:24.619Z,10008.00
2019-05-14T07:39:24.849Z,10084.00
2019-05-14T07:40:25.077Z,10124.00
2019-05-14T07:41:25.302Z,10212.00
2019-05-14T07:42:25.532Z,10232.00
2019-05-14T07:43:28.421Z,10264.00
2019-05-14T07:44:25.991Z,10292.00
2019-05-14T07:45:28.589Z,10288.00
2019-05-14T07:46:28.368Z,10368.00
2019-05-14T07:47:28.998Z,10272.00
2019-05-14T07:48:28.792Z,10244.00
2019-05-14T07:49:29.042Z,10324.00
2019-05-14T07:50:29.020Z,10524.00
2019-05-14T07:51:28.268Z,10672.00
2019-05-14T07:52:28.446Z,10864.00
2019-05-14T07:53:36.161Z,10988.00
2019-05-14T07:54:28.438Z,10996.00
2019-05-14T07:55:28.863Z,10892.00
2019-05-14T07:56:29.406Z,9080.00
2019-05-14T07:57:28.936Z,8980.00
2019-05-14T07:58:29.166Z,10976.00
2019-05-14T07:59:29.388Z,8424.00
2019-05-14T08:00:29.636Z,8200.00
2019-05-14T08:01:29.839Z,8284.00
2019-05-14T08:02:30.064Z,8464.00
2019-05-14T08:03:30.291Z,11900.00
2019-05-14T08:04:30.520Z,11436.00
2019-05-14T08:05:30.747Z,11216.00
2019-05-14T08:06:30.974Z,11480.00
2019-05-14T08:07:31.203Z,11644.00
2019-05-14T08:08:31.428Z,11712.00
2019-05-14T08:09:31.675Z,12048.00
2019-05-14T08:10:31.885Z,12304.00
2019-05-14T08:11:32.110Z,12292.00
2019-05-14T08:12:32.333Z,8700.00
2019-05-14T08:13:32.561Z,8328.00
2019-05-14T08:14:41.900Z,11140.00
2019-05-14T08:15:33.018Z,7456.00
2019-05-14T08:16:33.245Z,7072.00
2019-05-14T08:17:33.470Z,7200.00
2019-05-14T08:18:33.702Z,7252.00
2019-05-14T08:19:34.559Z,7592.00
2019-05-14T08:20:34.151Z,8184.00
2019-05-14T08:21:34.378Z,8688.00
2019-05-14T08:22:34.603Z,11528.00
2019-05-14T08:23:34.833Z,10608.00
2019-05-14T08:24:35.062Z,10548.00
2019-05-14T08:25:35.289Z,8412.00
2019-05-14T08:26:35.514Z,8612.00
2019-05-14T08:27:35.745Z,8512.00
2019-05-14T08:28:38.020Z,8060.00
2019-05-14T08:29:37.530Z,9504.00
2019-05-14T08:30:38.696Z,9392.00
2019-05-14T08:31:38.408Z,9244.00
2019-05-14T08:32:38.880Z,9116.00
2019-05-14T08:33:39.457Z,6676.00
2019-05-14T08:34:38.948Z,6724.00
2019-05-14T08:35:39.497Z,6800.00
2019-05-14T08:36:38.099Z,6864.00
2019-05-14T08:37:38.705Z,7004.00
2019-05-14T08:38:38.470Z,10004.00
2019-05-14T08:39:39.116Z,8808.00
2019-05-14T08:40:38.695Z,6664.00
2019-05-14T08:41:38.922Z,6584.00
2019-05-14T08:42:39.147Z,8956.00
2019-05-14T08:43:39.887Z,9856.00
2019-05-14T08:44:39.610Z,9704.00
2019-05-14T08:45:39.832Z,10368.00
2019-05-14T08:46:40.061Z,10660.00
2019-05-14T08:47:40.289Z,11140.00
2019-05-14T08:48:40.509Z,9964.00
2019-05-14T08:49:46.197Z,7068.00
2019-05-14T08:50:40.964Z,6868.00
2019-05-14T08:51:41.199Z,7076.00
2019-05-14T08:52:41.420Z,7496.00
2019-05-14T08:53:41.647Z,10216.00
2019-05-14T08:54:41.874Z,8172.00
2019-05-14T08:55:42.099Z,8568.00
2019-05-14T08:56:42.326Z,8792.00
2019-05-14T08:57:42.609Z,8588.00
2019-05-14T08:58:42.784Z,8232.00
2019-05-14T08:59:43.010Z,8104.00
2019-05-14T09:00:43.234Z,8204.00
2019-05-14T09:01:57.356Z,8168.00
2019-05-14T09:02:43.694Z,9016.00
2019-05-14T09:03:43.922Z,8376.00
2019-05-14T09:04:44.235Z,8556.00
2019-05-14T09:05:44.379Z,10568.00
2019-05-14T09:06:44.609Z,10316.00
2019-05-14T09:07:44.834Z,11980.00
2019-05-14T09:08:45.056Z,11532.00
2019-05-14T09:09:45.288Z,10072.00
2019-05-14T09:10:45.519Z,12024.00
2019-05-14T09:11:47.593Z,8524.00
2019-05-14T09:12:45.979Z,8488.00
2019-05-14T09:13:48.859Z,8408.00
2019-05-14T09:14:48.394Z,10856.00
2019-05-14T09:15:48.734Z,8436.00
2019-05-14T09:16:50.911Z,8620.00
2019-05-14T09:17:48.490Z,10252.00
2019-05-14T09:18:49.159Z,10996.00
2019-05-14T09:20:01.190Z,10748.00
2019-05-14T09:20:48.872Z,10956.00
2019-05-14T09:21:49.545Z,11208.00
2019-05-14T09:22:48.995Z,11416.00
2019-05-14T09:23:48.480Z,8940.00
2019-05-14T09:24:49.279Z,8424.00
2019-05-14T09:25:53.077Z,8504.00
2019-05-14T09:26:49.860Z,8208.00
2019-05-14T09:27:49.547Z,7772.00
2019-05-14T09:28:49.564Z,7664.00
2019-05-14T09:29:49.803Z,8516.00
2019-05-14T09:30:50.019Z,7812.00
2019-05-14T09:31:50.258Z,7584.00
2019-05-14T09:32:50.477Z,7472.00
2019-05-14T09:33:50.676Z,7648.00
2019-05-14T09:34:50.904Z,8332.00
2019-05-14T09:36:08.058Z,10164.00
2019-05-14T09:36:51.361Z,8308.00
2019-05-14T09:37:51.632Z,10340.00
2019-05-14T09:38:51.812Z,11264.00
2019-05-14T09:39:52.040Z,11952.00
2019-05-14T09:41:06.957Z,12324.00
2019-05-14T09:41:52.494Z,12680.00
2019-05-14T09:42:52.728Z,12912.00
2019-05-14T09:43:52.951Z,13112.00
2019-05-14T09:44:53.188Z,13112.00
2019-05-14T09:45:53.406Z,12648.00
2019-05-14T09:46:53.636Z,12176.00
2019-05-14T09:47:53.862Z,12012.00
2019-05-14T09:48:54.091Z,12232.00
2019-05-14T09:49:54.325Z,11388.00
2019-05-14T09:50:54.548Z,12648.00
2019-05-14T09:51:54.778Z,12284.00
2019-05-14T09:52:55.009Z,12212.00
2019-05-14T09:53:55.235Z,12204.00
2019-05-14T09:54:55.460Z,9384.00
2019-05-14T09:55:55.694Z,9732.00
2019-05-14T09:56:55.928Z,9928.00
2019-05-14T09:57:58.535Z,11372.00
2019-05-14T09:58:58.513Z,11100.00
2019-05-14T09:59:58.548Z,13220.00
2019-05-14T10:00:59.146Z,12892.00
2019-05-14T10:01:58.636Z,12216.00
2019-05-14T10:02:59.679Z,13684.00
2019-05-14T10:03:59.320Z,13500.00
2019-05-14T10:04:59.829Z,10340.00
2019-05-14T10:05:58.947Z,9680.00
2019-05-14T10:06:59.277Z,11024.00
2019-05-14T10:07:59.455Z,9792.00
2019-05-14T10:08:59.179Z,8260.00
2019-05-14T10:09:58.891Z,8844.00
2019-05-14T10:11:00.378Z,8020.00
2019-05-14T10:11:59.341Z,9488.00
2019-05-14T10:13:01.326Z,10720.00
2019-05-14T10:14:00.048Z,10824.00
2019-05-14T10:15:00.027Z,11160.00
2019-05-14T10:16:00.256Z,10672.00
2019-05-14T10:17:00.491Z,8964.00
2019-05-14T10:18:00.809Z,9300.00
2019-05-14T10:19:00.941Z,12220.00
2019-05-14T10:20:01.194Z,11536.00
2019-05-14T10:21:01.399Z,11432.00
2019-05-14T10:22:01.626Z,10276.00
2019-05-14T10:23:01.856Z,8316.00
2019-05-14T10:24:02.082Z,8896.00
2019-05-14T10:25:02.312Z,11084.00
2019-05-14T10:26:02.543Z,8028.00
2019-05-14T10:27:02.768Z,7816.00
2019-05-14T10:28:02.997Z,7700.00
2019-05-14T10:29:03.224Z,7584.00
2019-05-14T10:30:03.454Z,7520.00
2019-05-14T10:31:03.904Z,7728.00
2019-05-14T10:32:03.910Z,8276.00
2019-05-14T10:33:09.694Z,10164.00
2019-05-14T10:34:04.381Z,8504.00
2019-05-14T10:35:04.613Z,9220.00
2019-05-14T10:36:04.841Z,9184.00
2019-05-14T10:37:05.070Z,12012.00
2019-05-14T10:38:05.292Z,11916.00
2019-05-14T10:39:05.521Z,11228.00
2019-05-14T10:40:05.746Z,9456.00
2019-05-14T10:41:05.968Z,9392.00
2019-05-14T10:42:08.304Z,12460.00
2019-05-14T10:43:08.852Z,12316.00
2019-05-14T10:44:09.043Z,12272.00
2019-05-14T10:45:12.017Z,12228.00
2019-05-14T10:46:09.117Z,12240.00
2019-05-14T10:47:09.236Z,12348.00
2019-05-14T10:48:09.648Z,12592.00
2019-05-14T10:49:19.621Z,12600.00
2019-05-14T10:50:13.378Z,12292.00
2019-05-14T10:51:09.849Z,12484.00
2019-05-14T10:52:08.515Z,12704.00
2019-05-14T10:53:09.179Z,12480.00
2019-05-14T10:54:21.090Z,12184.00
2019-05-14T10:55:09.174Z,12208.00
2019-05-14T10:56:09.882Z,12312.00
2019-05-14T10:57:09.949Z,12468.00
2019-05-14T10:58:09.855Z,12312.00
2019-05-14T10:59:10.086Z,12244.00
2019-05-14T11:00:10.314Z,12436.00
2019-05-14T11:01:11.388Z,12472.00
2019-05-14T11:02:11.897Z,12548.00
2019-05-14T11:03:11.005Z,12640.00
2019-05-14T11:04:11.233Z,12432.00
2019-05-14T11:05:11.460Z,12144.00
2019-05-14T11:06:11.939Z,11760.00
2019-05-14T11:07:11.919Z,11504.00
2019-05-14T11:08:12.240Z,11216.00
2019-05-14T11:09:12.376Z,11092.00
2019-05-14T11:10:12.602Z,11136.00
2019-05-14T11:11:12.830Z,11344.00
2019-05-14T11:12:13.075Z,9556.00
2019-05-14T11:13:13.291Z,8960.00
2019-05-14T11:14:13.517Z,8652.00
2019-05-14T11:15:13.747Z,11332.00
2019-05-14T11:16:13.977Z,11224.00
2019-05-14T11:17:14.203Z,11504.00
2019-05-14T11:18:14.430Z,11692.00
2019-05-14T11:19:14.655Z,11776.00
2019-05-14T11:20:14.882Z,12212.00
2019-05-14T11:21:24.816Z,12248.00
2019-05-14T11:22:15.342Z,9040.00
2019-05-14T11:23:18.268Z,11580.00
2019-05-14T11:24:18.614Z,8960.00
2019-05-14T11:25:16.032Z,8436.00
2019-05-14T11:26:18.460Z,8328.00
2019-05-14T11:27:18.671Z,8580.00
2019-05-14T11:28:19.031Z,8936.00
2019-05-14T11:29:18.529Z,9096.00
2019-05-14T11:30:19.336Z,9164.00
2019-05-14T11:31:19.153Z,9240.00
2019-05-14T11:32:18.419Z,9212.00
2019-05-14T11:33:18.706Z,9140.00
2019-05-14T11:34:19.277Z,9024.00
2019-05-14T11:35:19.182Z,8868.00
2019-05-14T11:36:18.893Z,8548.00
2019-05-14T11:37:18.855Z,8112.00
2019-05-14T11:38:31.882Z,7836.00
2019-05-14T11:39:19.223Z,7640.00
2019-05-14T11:40:19.458Z,7380.00
2019-05-14T11:41:19.690Z,8248.00
2019-05-14T11:42:20.113Z,7000.00
2019-05-14T11:43:20.158Z,6900.00
2019-05-14T11:44:20.375Z,6896.00
2019-05-14T11:45:20.607Z,7008.00
2019-05-14T11:46:29.693Z,7532.00
2019-05-14T11:47:21.072Z,10452.00
2019-05-14T11:48:21.300Z,7808.00
2019-05-14T11:49:21.528Z,7948.00
2019-05-14T11:50:21.757Z,9352.00
2019-05-14T11:51:46.079Z,9072.00
2019-05-14T11:52:22.213Z,9160.00
2019-05-14T11:53:22.441Z,9628.00
2019-05-14T11:54:23.230Z,9924.00
2019-05-14T11:55:22.896Z,9876.00
2019-05-14T11:56:23.122Z,12500.00
2019-05-14T11:57:23.350Z,12192.00
2019-05-14T11:58:23.581Z,10520.00
2019-05-14T11:59:23.804Z,9264.00
2019-05-14T12:00:25.900Z,9816.00
2019-05-14T12:01:24.264Z,10904.00
2019-05-14T12:02:24.486Z,10272.00
2019-05-14T12:03:24.723Z,7236.00
2019-05-14T12:04:24.953Z,7020.00
2019-05-14T12:05:25.169Z,6480.00
2019-05-14T12:06:25.399Z,6556.00
2019-05-14T12:07:27.934Z,6756.00
2019-05-14T12:08:25.856Z,7168.00
2019-05-14T12:09:28.195Z,10356.00
2019-05-14T12:10:29.142Z,10752.00
2019-05-14T12:11:28.947Z,11324.00
2019-05-14T12:12:28.813Z,11960.00
2019-05-14T12:13:29.966Z,12484.00
2019-05-14T12:14:27.221Z,12780.00
2019-05-14T12:15:27.465Z,13052.00
2019-05-14T12:16:29.168Z,13360.00
2019-05-14T12:17:29.509Z,13452.00